createdAt,value
2019-02-22T00:00:27.508Z,38.30
2019-02-22T00:01:27.469Z,41.60
2019-02-22T00:02:27.452Z,37.30
2019-02-22T00:03:27.447Z,43.30
2019-02-22T00:04:27.461Z,42.70
2019-02-22T00:05:27.422Z,37.40
2019-02-22T00:06:27.434Z,38.50
2019-02-22T00:07:27.392Z,38.20
2019-02-22T00:08:27.390Z,45.20
2019-02-22T00:09:27.383Z,39.00
2019-02-22T00:10:27.381Z,37.10
2019-02-22T00:11:27.352Z,41.20
2019-02-22T00:12:27.366Z,38.70
2019-02-22T00:13:27.338Z,40.50
2019-02-22T00:14:27.321Z,45.30
2019-02-22T00:15:27.318Z,39.30
2019-02-22T00:16:27.314Z,37.60
2019-02-22T00:17:27.304Z,41.10
2019-02-22T00:18:27.285Z,39.30
2019-02-22T00:19:27.266Z,40.10
2019-02-22T00:20:27.260Z,41.20
2019-02-22T00:21:27.242Z,39.50
2019-02-22T00:22:27.233Z,38.30
2019-02-22T00:23:27.245Z,35.50
2019-02-22T00:24:27.232Z,40.20
2019-02-22T00:25:27.206Z,36.80
2019-02-22T00:26:27.186Z,37.30
2019-02-22T00:27:27.189Z,37.50
2019-02-22T00:28:27.183Z,42.00
2019-02-22T00:29:27.168Z,47.00
2019-02-22T00:30:27.154Z,43.00
2019-02-22T00:31:27.131Z,40.20
2019-02-22T00:32:27.125Z,43.90
2019-02-22T00:33:27.136Z,43.60
2019-02-22T00:34:27.117Z,43.20
2019-02-22T00:35:27.280Z,43.40
2019-02-22T00:36:27.166Z,43.60
2019-02-22T00:37:27.107Z,44.80
2019-02-22T00:38:27.241Z,42.20
2019-02-22T00:39:27.072Z,43.90
2019-02-22T00:40:27.034Z,37.50
2019-02-22T00:41:27.030Z,42.80
2019-02-22T00:42:27.037Z,44.80
2019-02-22T00:43:26.999Z,42.50
2019-02-22T00:44:27.009Z,42.60
2019-02-22T00:45:26.982Z,46.20
2019-02-22T00:46:26.982Z,41.20
2019-02-22T00:47:26.961Z,41.20
2019-02-22T00:48:26.964Z,42.20
2019-02-22T00:49:26.974Z,44.00
2019-02-22T00:50:26.935Z,38.00
2019-02-22T00:51:26.926Z,46.20
2019-02-22T00:52:26.906Z,40.10
2019-02-22T00:53:26.905Z,38.70
2019-02-22T00:54:26.877Z,38.50
2019-02-22T00:55:26.903Z,43.30
2019-02-22T00:56:26.867Z,44.30
2019-02-22T00:57:26.866Z,42.50
2019-02-22T00:58:26.840Z,44.70
2019-02-22T00:59:26.836Z,45.70
2019-02-22T01:00:26.837Z,45.00
2019-02-22T01:01:26.816Z,38.00
2019-02-22T01:02:26.870Z,40.90
2019-02-22T01:03:26.810Z,45.50
2019-02-22T01:04:26.787Z,40.00
2019-02-22T01:05:26.769Z,42.50
2019-02-22T01:06:26.753Z,40.70
2019-02-22T01:07:26.743Z,43.10
2019-02-22T01:08:26.728Z,44.90
2019-02-22T01:09:26.728Z,43.60
2019-02-22T01:10:31.196Z,41.90
2019-02-22T01:11:26.709Z,42.80
2019-02-22T01:12:26.693Z,43.70
2019-02-22T01:13:26.677Z,43.00
2019-02-22T01:14:26.666Z,44.40
2019-02-22T01:15:26.655Z,49.00
2019-02-22T01:16:26.657Z,46.50
2019-02-22T01:17:26.659Z,44.40
2019-02-22T01:18:26.612Z,39.40
2019-02-22T01:19:26.611Z,42.80
2019-02-22T01:20:26.599Z,49.70
2019-02-22T01:21:26.619Z,43.90
2019-02-22T01:22:26.605Z,43.30
2019-02-22T01:23:26.591Z,43.30
2019-02-22T01:24:26.555Z,41.00
2019-02-22T01:25:26.561Z,43.90
2019-02-22T01:26:26.533Z,46.10
2019-02-22T01:27:26.548Z,47.80
2019-02-22T01:28:26.516Z,45.60
2019-02-22T01:29:26.502Z,45.30
2019-02-22T01:30:26.481Z,43.40
2019-02-22T01:31:26.484Z,39.40
2019-02-22T01:32:26.477Z,43.60
2019-02-22T01:33:26.476Z,44.80
2019-02-22T01:34:26.470Z,40.20
2019-02-22T01:35:26.431Z,40.10
2019-02-22T01:36:26.421Z,39.70
2019-02-22T01:37:26.421Z,40.50
2019-02-22T01:38:26.404Z,41.70
2019-02-22T01:39:26.410Z,43.30
2019-02-22T01:40:26.376Z,39.70
2019-02-22T01:41:26.367Z,40.40
2019-02-22T01:42:26.365Z,43.00
2019-02-22T01:43:26.338Z,41.70
2019-02-22T01:44:26.331Z,42.40
2019-02-22T01:45:26.341Z,41.90
2019-02-22T01:46:26.326Z,43.00
2019-02-22T01:47:26.305Z,43.90
2019-02-22T01:48:26.293Z,42.60
2019-02-22T01:49:26.307Z,45.10
2019-02-22T01:50:26.281Z,45.00
2019-02-22T01:51:26.263Z,43.50
2019-02-22T01:52:26.252Z,42.50
2019-02-22T01:53:26.246Z,47.80
2019-02-22T01:54:26.240Z,44.50
2019-02-22T01:55:26.209Z,48.50
2019-02-22T01:56:26.204Z,45.20
2019-02-22T01:57:26.187Z,48.60
2019-02-22T01:58:26.191Z,50.20
2019-02-22T01:59:26.171Z,45.90
2019-02-22T02:00:26.162Z,48.30
2019-02-22T02:01:26.153Z,42.10
2019-02-22T02:02:26.132Z,47.80
2019-02-22T02:03:26.126Z,46.20
2019-02-22T02:04:26.131Z,45.30
2019-02-22T02:05:26.104Z,41.40
2019-02-22T02:06:26.099Z,47.10
2019-02-22T02:07:26.088Z,41.70
2019-02-22T02:08:26.082Z,44.60
2019-02-22T02:09:26.065Z,43.70
2019-02-22T02:10:26.039Z,47.20
2019-02-22T02:11:26.052Z,43.10
2019-02-22T02:12:26.034Z,47.90
2019-02-22T02:13:26.033Z,47.40
2019-02-22T02:14:26.024Z,45.40
2019-02-22T02:15:25.986Z,46.20
2019-02-22T02:16:25.979Z,46.70
2019-02-22T02:17:25.970Z,48.20
2019-02-22T02:18:25.969Z,44.60
2019-02-22T02:19:25.962Z,47.80
2019-02-22T02:20:25.981Z,45.10
2019-02-22T02:21:25.916Z,45.30
2019-02-22T02:22:25.921Z,44.00
2019-02-22T02:23:25.909Z,48.40
2019-02-22T02:24:25.917Z,43.30
2019-02-22T02:25:25.880Z,45.90
2019-02-22T02:26:25.867Z,42.50
2019-02-22T02:27:25.854Z,42.60
2019-02-22T02:28:25.858Z,40.80
2019-02-22T02:29:25.843Z,49.30
2019-02-22T02:30:25.841Z,45.00
2019-02-22T02:31:25.822Z,45.50
2019-02-22T02:32:25.804Z,44.00
2019-02-22T02:33:25.790Z,44.00
2019-02-22T02:34:25.806Z,42.90
2019-02-22T02:35:25.801Z,45.80
2019-02-22T02:36:25.800Z,46.10
2019-02-22T02:37:25.781Z,47.10
2019-02-22T02:38:25.733Z,44.50
2019-02-22T02:39:25.720Z,46.20
2019-02-22T02:40:25.709Z,43.40
2019-02-22T02:41:25.712Z,42.30
2019-02-22T02:42:25.687Z,44.70
2019-02-22T02:43:25.712Z,42.50
2019-02-22T02:44:25.677Z,43.70
2019-02-22T02:45:25.670Z,43.20
2019-02-22T02:46:25.654Z,42.80
2019-02-22T02:47:25.651Z,41.70
2019-02-22T02:48:25.624Z,43.40
2019-02-22T02:49:25.636Z,42.90
2019-02-22T02:50:25.617Z,47.90
2019-02-22T02:51:25.605Z,40.90
2019-02-22T02:52:25.594Z,41.40
2019-02-22T02:53:25.588Z,44.30
2019-02-22T02:54:25.611Z,40.00
2019-02-22T02:55:25.551Z,45.50
2019-02-22T02:56:25.593Z,43.20
2019-02-22T02:57:25.545Z,41.20
2019-02-22T02:58:25.520Z,44.20
2019-02-22T02:59:25.532Z,41.20
2019-02-22T03:00:25.516Z,40.30
2019-02-22T03:01:25.483Z,37.40
2019-02-22T03:02:25.466Z,41.90
2019-02-22T03:03:25.467Z,42.30
2019-02-22T03:04:25.459Z,45.70
2019-02-22T03:05:25.541Z,42.40
2019-02-22T03:06:25.444Z,44.60
2019-02-22T03:07:25.419Z,41.50
2019-02-22T03:08:25.413Z,41.10
2019-02-22T03:09:25.399Z,42.90
2019-02-22T03:10:25.407Z,40.00
2019-02-22T03:11:25.374Z,42.50
2019-02-22T03:12:25.359Z,40.40
2019-02-22T03:13:25.353Z,35.70
2019-02-22T03:14:25.372Z,38.90
2019-02-22T03:15:25.330Z,42.20
2019-02-22T03:16:25.338Z,41.10
2019-02-22T03:17:25.310Z,41.50
2019-02-22T03:18:25.304Z,41.60
2019-02-22T03:19:25.310Z,41.40
2019-02-22T03:20:25.285Z,39.00
2019-02-22T03:21:25.271Z,43.40
2019-02-22T03:22:25.277Z,41.10
2019-02-22T03:23:25.257Z,35.20
2019-02-22T03:24:25.243Z,40.90
2019-02-22T03:25:25.218Z,38.70
2019-02-22T03:26:25.208Z,42.40
2019-02-22T03:27:25.203Z,37.80
2019-02-22T03:28:25.217Z,42.80
2019-02-22T03:29:25.199Z,36.40
2019-02-22T03:30:25.173Z,37.20
2019-02-22T03:31:25.169Z,38.30
2019-02-22T03:32:25.152Z,36.40
2019-02-22T03:33:25.145Z,40.00
2019-02-22T03:34:25.153Z,40.40
2019-02-22T03:35:25.116Z,37.70
2019-02-22T03:36:25.111Z,40.40
2019-02-22T03:37:25.115Z,40.50
2019-02-22T03:38:25.088Z,39.20
2019-02-22T03:39:25.089Z,39.40
2019-02-22T03:40:25.059Z,33.80
2019-02-22T03:41:32.787Z,37.90
2019-02-22T03:42:26.043Z,36.50
2019-02-22T03:43:25.019Z,35.50
2019-02-22T03:44:25.029Z,35.10
2019-02-22T03:45:24.996Z,37.40
2019-02-22T03:46:25.118Z,34.90
2019-02-22T03:47:24.991Z,34.10
2019-02-22T03:48:24.968Z,33.70
2019-02-22T03:49:24.981Z,36.10
2019-02-22T03:50:24.946Z,34.10
2019-02-22T03:51:24.943Z,32.60
2019-02-22T03:52:24.918Z,35.40
2019-02-22T03:53:24.978Z,34.70
2019-02-22T03:54:24.908Z,35.20
2019-02-22T03:55:24.915Z,33.70
2019-02-22T03:56:24.891Z,30.10
2019-02-22T03:57:24.863Z,31.50
2019-02-22T03:58:24.860Z,35.00
2019-02-22T03:59:24.910Z,28.60
2019-02-22T04:00:24.837Z,31.80
2019-02-22T04:01:24.853Z,35.50
2019-02-22T04:02:24.826Z,32.70
2019-02-22T04:03:24.800Z,28.60
2019-02-22T04:04:24.805Z,32.50
2019-02-22T04:05:24.799Z,33.40
2019-02-22T04:06:24.787Z,34.00
2019-02-22T04:07:24.773Z,31.10
2019-02-22T04:08:24.764Z,32.50
2019-02-22T04:09:24.730Z,31.90
2019-02-22T04:10:24.738Z,34.80
2019-02-22T04:11:24.716Z,29.80
2019-02-22T04:12:24.716Z,29.60
2019-02-22T04:13:24.699Z,33.20
2019-02-22T04:14:24.682Z,32.20
2019-02-22T04:15:24.674Z,30.70
2019-02-22T04:16:24.662Z,29.30
2019-02-22T04:17:24.661Z,28.70
2019-02-22T04:18:24.642Z,29.60
2019-02-22T04:19:24.629Z,27.90
2019-02-22T04:20:24.645Z,28.60
2019-02-22T04:21:24.610Z,27.90
2019-02-22T04:22:24.602Z,25.80
2019-02-22T04:23:24.591Z,30.50
2019-02-22T04:24:24.579Z,28.30
2019-02-22T04:25:24.570Z,29.70
2019-02-22T04:26:24.562Z,27.50
2019-02-22T04:27:24.539Z,29.10
2019-02-22T04:28:24.530Z,30.90
2019-02-22T04:29:24.525Z,28.50
2019-02-22T04:30:24.508Z,29.20
2019-02-22T04:31:24.511Z,27.70
2019-02-22T04:32:24.487Z,25.20
2019-02-22T04:33:24.487Z,26.30
2019-02-22T04:34:24.468Z,28.50
2019-02-22T04:35:24.467Z,25.70
2019-02-22T04:36:24.467Z,28.70
2019-02-22T04:37:24.425Z,26.80
2019-02-22T04:38:24.413Z,27.20
2019-02-22T04:39:24.415Z,25.50
2019-02-22T04:40:24.400Z,28.80
2019-02-22T04:41:24.419Z,28.90
2019-02-22T04:42:24.371Z,24.10
2019-02-22T04:43:24.361Z,24.90
2019-02-22T04:44:24.424Z,25.80
2019-02-22T04:45:24.358Z,25.10
2019-02-22T04:46:24.348Z,25.50
2019-02-22T04:47:24.334Z,24.10
2019-02-22T04:48:24.306Z,25.10
2019-02-22T04:49:24.296Z,26.80
2019-02-22T04:50:24.287Z,23.70
2019-02-22T04:51:24.287Z,24.90
2019-02-22T04:52:24.273Z,23.30
2019-02-22T04:53:24.260Z,24.40
2019-02-22T04:54:24.256Z,25.00
2019-02-22T04:55:24.224Z,23.50
2019-02-22T04:56:24.222Z,24.80
2019-02-22T04:57:24.214Z,24.70
2019-02-22T04:58:24.213Z,25.40
2019-02-22T04:59:24.187Z,22.60
2019-02-22T05:00:24.173Z,25.80
2019-02-22T05:01:24.179Z,24.20
2019-02-22T05:02:24.153Z,24.10
2019-02-22T05:03:24.145Z,23.80
2019-02-22T05:04:24.153Z,22.90
2019-02-22T05:05:24.133Z,22.20
2019-02-22T05:06:24.128Z,24.20
2019-02-22T05:07:24.107Z,24.20
2019-02-22T05:08:24.091Z,25.70
2019-02-22T05:09:24.089Z,24.20
2019-02-22T05:10:24.084Z,26.40
2019-02-22T05:11:24.070Z,24.30
2019-02-22T05:12:24.060Z,24.90
2019-02-22T05:13:24.028Z,24.00
2019-02-22T05:14:24.039Z,24.60
2019-02-22T05:15:24.016Z,24.80
2019-02-22T05:16:24.002Z,26.80
2019-02-22T05:17:24.009Z,26.90
2019-02-22T05:18:23.986Z,26.40
2019-02-22T05:19:23.983Z,25.00
2019-02-22T05:20:23.964Z,24.90
2019-02-22T05:21:23.934Z,27.40
2019-02-22T05:22:23.951Z,25.80
2019-02-22T05:23:23.948Z,26.50
2019-02-22T05:24:23.913Z,25.00
2019-02-22T05:25:23.908Z,26.00
2019-02-22T05:26:23.897Z,25.70
2019-02-22T05:27:23.883Z,24.90
2019-02-22T05:28:23.881Z,24.70
2019-02-22T05:29:23.862Z,26.70
2019-02-22T05:30:23.851Z,24.90
2019-02-22T05:31:23.835Z,23.00
2019-02-22T05:32:23.846Z,22.10
2019-02-22T05:33:23.822Z,26.20
2019-02-22T05:34:23.802Z,26.60
2019-02-22T05:35:23.803Z,26.70
2019-02-22T05:36:23.778Z,22.90
2019-02-22T05:37:23.781Z,23.70
2019-02-22T05:38:23.755Z,24.00
2019-02-22T05:39:23.766Z,24.00
2019-02-22T05:40:23.729Z,21.50
2019-02-22T05:41:23.732Z,21.30
2019-02-22T05:42:23.780Z,22.90
2019-02-22T05:43:23.702Z,21.90
2019-02-22T05:44:23.708Z,21.80
2019-02-22T05:45:23.678Z,22.00
2019-02-22T05:46:23.667Z,20.80
2019-02-22T05:47:23.658Z,21.70
2019-02-22T05:48:25.526Z,21.60
2019-02-22T05:49:23.666Z,22.30
2019-02-22T05:50:23.633Z,21.70
2019-02-22T05:51:23.616Z,21.90
2019-02-22T05:52:23.604Z,23.70
2019-02-22T05:53:23.592Z,21.90
2019-02-22T05:54:23.595Z,21.80
2019-02-22T05:55:23.590Z,20.50
2019-02-22T05:56:23.572Z,20.10
2019-02-22T05:57:23.562Z,18.90
2019-02-22T05:58:23.614Z,21.20
2019-02-22T05:59:23.600Z,19.40
2019-02-22T06:00:23.524Z,19.00
2019-02-22T06:01:23.510Z,20.40
2019-02-22T06:02:23.533Z,19.30
2019-02-22T06:03:23.525Z,20.70
2019-02-22T06:04:23.465Z,19.50
2019-02-22T06:05:23.472Z,21.00
2019-02-22T06:06:23.455Z,21.20
2019-02-22T06:07:23.442Z,20.30
2019-02-22T06:08:23.447Z,19.40
2019-02-22T06:09:23.420Z,19.40
2019-02-22T06:10:23.429Z,20.10
2019-02-22T06:11:23.396Z,18.50
2019-02-22T06:12:33.835Z,20.20
2019-02-22T06:13:24.385Z,18.00
2019-02-22T06:14:23.369Z,22.00
2019-02-22T06:15:23.359Z,20.10
2019-02-22T06:16:23.351Z,19.20
2019-02-22T06:17:23.331Z,19.10
2019-02-22T06:18:23.403Z,20.40
2019-02-22T06:19:23.324Z,18.80
2019-02-22T06:20:23.311Z,17.90
2019-02-22T06:21:23.297Z,20.80
2019-02-22T06:22:29.661Z,20.80
2019-02-22T06:23:24.265Z,22.00
2019-02-22T06:24:23.286Z,20.30
2019-02-22T06:25:23.239Z,20.00
2019-02-22T06:26:23.247Z,20.70
2019-02-22T06:27:23.241Z,19.90
2019-02-22T06:28:23.229Z,24.00
2019-02-22T06:29:23.238Z,24.10
2019-02-22T06:30:23.193Z,23.00
2019-02-22T06:31:23.275Z,25.70
2019-02-22T06:32:23.161Z,21.90
2019-02-22T06:33:23.175Z,24.40
2019-02-22T06:34:23.159Z,25.20
2019-02-22T06:35:23.127Z,26.40
2019-02-22T06:36:23.154Z,25.00
2019-02-22T06:37:23.118Z,28.40
2019-02-22T06:38:23.101Z,26.20
2019-02-22T06:39:23.103Z,28.30
2019-02-22T06:40:23.079Z,31.70
2019-02-22T06:41:23.078Z,31.10
2019-02-22T06:42:23.080Z,33.20
2019-02-22T06:43:23.045Z,33.30
2019-02-22T06:44:23.043Z,35.10
2019-02-22T06:45:23.025Z,32.90
2019-02-22T06:46:23.022Z,33.50
2019-02-22T06:47:23.082Z,36.30
2019-02-22T06:48:23.022Z,34.40
2019-02-22T06:49:23.060Z,38.80
2019-02-22T06:50:33.415Z,39.30
2019-02-22T06:51:23.966Z,40.20
2019-02-22T06:52:22.975Z,42.70
2019-02-22T06:53:22.957Z,44.50
2019-02-22T06:54:22.937Z,46.90
2019-02-22T06:55:23.006Z,40.70
2019-02-22T06:56:24.274Z,46.10
2019-02-22T06:57:22.905Z,40.70
2019-02-22T06:58:22.897Z,40.50
2019-02-22T06:59:22.908Z,42.10
2019-02-22T07:00:22.876Z,40.30
2019-02-22T07:01:22.870Z,40.20
2019-02-22T07:02:22.856Z,38.80
2019-02-22T07:03:22.844Z,40.40
2019-02-22T07:04:22.812Z,38.40
2019-02-22T07:05:22.807Z,38.30
2019-02-22T07:06:22.803Z,38.60
2019-02-22T07:07:22.795Z,40.30
2019-02-22T07:08:22.774Z,35.00
2019-02-22T07:09:22.759Z,37.70
2019-02-22T07:10:22.754Z,41.10
2019-02-22T07:11:22.758Z,34.80
2019-02-22T07:12:22.783Z,40.90
2019-02-22T07:13:24.517Z,36.60
2019-02-22T07:14:22.721Z,36.90
2019-02-22T07:15:22.702Z,43.30
2019-02-22T07:16:22.688Z,41.20
2019-02-22T07:17:22.679Z,47.10
2019-02-22T07:18:22.679Z,43.10
2019-02-22T07:19:22.689Z,41.20
2019-02-22T07:20:22.640Z,43.40
2019-02-22T07:21:22.631Z,44.90
2019-02-22T07:22:22.622Z,44.20
2019-02-22T07:23:22.614Z,45.80
2019-02-22T07:24:22.608Z,42.30
2019-02-22T07:25:22.671Z,49.30
2019-02-22T07:26:22.587Z,44.00
2019-02-22T07:27:22.561Z,45.10
2019-02-22T07:28:22.560Z,45.50
2019-02-22T07:29:22.562Z,44.00
2019-02-22T07:30:22.562Z,43.50
2019-02-22T07:31:22.577Z,40.90
2019-02-22T07:32:22.515Z,41.50
2019-02-22T07:33:22.507Z,40.70
2019-02-22T07:34:22.502Z,42.30
2019-02-22T07:35:22.558Z,41.20
2019-02-22T07:36:22.465Z,41.10
2019-02-22T07:37:22.464Z,39.90
2019-02-22T07:38:22.454Z,45.50
2019-02-22T07:39:27.788Z,44.40
2019-02-22T07:40:23.455Z,41.80
2019-02-22T07:41:22.427Z,43.90
2019-02-22T07:42:22.403Z,41.80
2019-02-22T07:43:22.409Z,42.00
2019-02-22T07:44:22.391Z,43.50
2019-02-22T07:45:22.393Z,43.10
2019-02-22T07:46:22.427Z,42.60
2019-02-22T07:47:22.352Z,42.60
2019-02-22T07:48:22.354Z,41.50
2019-02-22T07:49:22.347Z,38.50
2019-02-22T07:50:22.343Z,41.40
2019-02-22T07:51:22.321Z,41.50
2019-02-22T07:52:22.315Z,40.50
2019-02-22T07:53:22.332Z,41.40
2019-02-22T07:54:22.284Z,41.40
2019-02-22T07:55:22.292Z,39.40
2019-02-22T07:56:22.264Z,42.30
2019-02-22T07:57:22.252Z,39.90
2019-02-22T07:58:22.268Z,41.90
2019-02-22T07:59:22.222Z,40.00
2019-02-22T08:00:22.215Z,39.90
2019-02-22T08:01:22.237Z,44.50
2019-02-22T08:02:22.197Z,43.90
2019-02-22T08:03:22.176Z,43.90
2019-02-22T08:04:22.192Z,40.80
2019-02-22T08:05:22.160Z,44.50
2019-02-22T08:06:22.150Z,43.90
2019-02-22T08:07:22.171Z,44.30
2019-02-22T08:08:22.136Z,43.10
2019-02-22T08:09:22.142Z,44.40
2019-02-22T08:10:22.106Z,42.80
2019-02-22T08:11:22.087Z,45.80
2019-02-22T08:12:22.080Z,47.20
2019-02-22T08:13:22.088Z,45.10
2019-02-22T08:14:22.059Z,43.20
2019-02-22T08:15:22.056Z,43.40
2019-02-22T08:16:22.034Z,46.50
2019-02-22T08:17:22.035Z,45.20
2019-02-22T08:18:22.019Z,44.80
2019-02-22T08:19:22.001Z,43.50
2019-02-22T08:20:21.995Z,44.00
2019-02-22T08:21:21.979Z,46.10
2019-02-22T08:22:21.972Z,47.70
2019-02-22T08:23:21.980Z,48.00
2019-02-22T08:24:21.952Z,49.70
2019-02-22T08:25:21.934Z,48.30
2019-02-22T08:26:21.921Z,47.40
2019-02-22T08:27:21.908Z,44.60
2019-02-22T08:28:21.905Z,47.80
2019-02-22T08:29:21.919Z,44.60
2019-02-22T08:30:21.887Z,45.40
2019-02-22T08:31:21.863Z,47.60
2019-02-22T08:32:21.895Z,48.20
2019-02-22T08:33:21.861Z,50.00
2019-02-22T08:34:21.848Z,53.20
2019-02-22T08:35:21.833Z,48.90
2019-02-22T08:36:21.816Z,48.30
2019-02-22T08:37:21.800Z,47.70
2019-02-22T08:38:21.806Z,50.70
2019-02-22T08:39:21.780Z,45.90
2019-02-22T08:40:21.761Z,48.10
2019-02-22T08:41:21.765Z,47.10
2019-02-22T08:42:21.779Z,47.80
2019-02-22T08:43:31.075Z,46.30
2019-02-22T08:44:22.741Z,48.60
2019-02-22T08:45:21.704Z,55.60
2019-02-22T08:46:21.692Z,51.40
2019-02-22T08:47:21.695Z,49.80
2019-02-22T08:48:21.681Z,47.70
2019-02-22T08:49:21.694Z,48.40
2019-02-22T08:50:21.676Z,53.00
2019-02-22T08:51:21.650Z,49.40
2019-02-22T08:52:21.636Z,48.60
2019-02-22T08:53:21.629Z,50.70
2019-02-22T08:54:21.616Z,51.40
2019-02-22T08:55:21.643Z,48.40
2019-02-22T08:56:21.597Z,53.30
2019-02-22T08:57:21.572Z,51.20
2019-02-22T08:58:21.560Z,49.30
2019-02-22T08:59:21.568Z,49.70
2019-02-22T09:00:21.547Z,48.90
2019-02-22T09:01:21.558Z,52.80
2019-02-22T09:02:21.540Z,45.40
2019-02-22T09:03:21.546Z,48.70
2019-02-22T09:04:21.518Z,50.40
2019-02-22T09:05:21.487Z,48.10
2019-02-22T09:06:21.478Z,46.20
2019-02-22T09:07:21.484Z,48.50
2019-02-22T09:08:21.464Z,49.90
2019-02-22T09:09:21.457Z,47.80
2019-02-22T09:10:21.475Z,51.60
2019-02-22T09:11:21.433Z,43.40
2019-02-22T09:12:21.421Z,46.10
2019-02-22T09:13:21.419Z,46.20
2019-02-22T09:14:21.392Z,49.90
2019-02-22T09:15:21.390Z,45.80
2019-02-22T09:16:21.386Z,46.40
2019-02-22T09:17:21.363Z,44.50
2019-02-22T09:18:21.357Z,43.50
2019-02-22T09:19:21.349Z,41.90
2019-02-22T09:20:21.334Z,45.30
2019-02-22T09:21:21.340Z,49.30
2019-02-22T09:22:23.173Z,49.30
2019-02-22T09:23:21.289Z,44.50
2019-02-22T09:24:21.291Z,44.70
2019-02-22T09:25:21.270Z,46.00
2019-02-22T09:26:21.271Z,40.70
2019-02-22T09:27:21.271Z,49.40
2019-02-22T09:28:21.240Z,41.30
2019-02-22T09:29:21.236Z,44.70
2019-02-22T09:30:21.228Z,46.10
2019-02-22T09:31:21.207Z,45.70
2019-02-22T09:32:21.225Z,43.00
2019-02-22T09:33:21.214Z,46.80
2019-02-22T09:34:21.175Z,44.30
2019-02-22T09:35:21.175Z,41.70
2019-02-22T09:36:21.251Z,47.20
2019-02-22T09:37:21.135Z,44.60
2019-02-22T09:38:21.137Z,41.70
2019-02-22T09:39:21.140Z,44.20
2019-02-22T09:40:21.112Z,45.60
2019-02-22T09:41:21.104Z,45.70
2019-02-22T09:42:21.095Z,46.00
2019-02-22T09:43:21.079Z,42.40
2019-02-22T09:44:21.069Z,43.80
2019-02-22T09:45:21.092Z,45.50
2019-02-22T09:46:21.054Z,42.40
2019-02-22T09:47:21.045Z,40.20
2019-02-22T09:48:21.042Z,45.00
2019-02-22T09:49:21.012Z,40.80
2019-02-22T09:50:21.003Z,41.30
2019-02-22T09:51:21.017Z,41.50
2019-02-22T09:52:20.988Z,42.60
2019-02-22T09:53:20.980Z,43.70
2019-02-22T09:54:20.972Z,41.60
2019-02-22T09:55:20.951Z,40.80
2019-02-22T09:56:20.938Z,41.10
2019-02-22T09:57:20.950Z,39.70
2019-02-22T09:58:20.905Z,42.80
2019-02-22T09:59:20.908Z,41.50
2019-02-22T10:00:20.895Z,41.40
2019-02-22T10:01:20.898Z,39.70
2019-02-22T10:02:20.875Z,40.30
2019-02-22T10:03:20.909Z,37.90
2019-02-22T10:04:20.863Z,36.90
2019-02-22T10:05:20.844Z,36.50
2019-02-22T10:06:20.927Z,38.10
2019-02-22T10:07:20.807Z,37.40
2019-02-22T10:08:20.847Z,38.50
2019-02-22T10:09:20.798Z,40.60
2019-02-22T10:10:20.803Z,34.30
2019-02-22T10:11:20.819Z,33.20
2019-02-22T10:12:20.757Z,34.60
2019-02-22T10:13:20.936Z,35.70
2019-02-22T10:14:20.770Z,36.80
2019-02-22T10:15:20.721Z,36.50
2019-02-22T10:16:20.722Z,34.00
2019-02-22T10:17:20.711Z,36.60
2019-02-22T10:18:20.697Z,37.90
2019-02-22T10:19:20.689Z,37.90
2019-02-22T10:20:20.683Z,38.00
2019-02-22T10:21:20.659Z,36.30
2019-02-22T10:22:20.674Z,38.50
2019-02-22T10:23:20.637Z,35.90
2019-02-22T10:24:20.623Z,37.00
2019-02-22T10:25:20.632Z,37.10
2019-02-22T10:26:21.506Z,34.40
2019-02-22T10:27:20.611Z,39.70
2019-02-22T10:28:20.587Z,36.50
2019-02-22T10:29:20.602Z,36.30
2019-02-22T10:30:20.587Z,38.20
2019-02-22T10:31:20.556Z,35.50
2019-02-22T10:32:20.542Z,34.20
2019-02-22T10:33:20.573Z,39.00
2019-02-22T10:34:20.524Z,39.70
2019-02-22T10:35:20.571Z,36.60
2019-02-22T10:36:20.520Z,35.80
2019-02-22T10:37:20.581Z,37.90
2019-02-22T10:38:20.474Z,34.70
2019-02-22T10:39:20.492Z,33.90
2019-02-22T10:40:21.436Z,34.00
2019-02-22T10:41:20.440Z,32.70
2019-02-22T10:42:21.322Z,32.50
2019-02-22T10:43:20.442Z,34.00
2019-02-22T10:44:20.421Z,32.50
2019-02-22T10:45:20.409Z,32.60
2019-02-22T10:46:22.207Z,29.00
2019-02-22T10:47:20.399Z,30.80
2019-02-22T10:48:20.368Z,31.10
2019-02-22T10:49:20.368Z,30.20
2019-02-22T10:50:20.349Z,28.60
2019-02-22T10:51:20.362Z,29.60
2019-02-22T10:52:20.319Z,29.40
2019-02-22T10:53:20.340Z,28.60
2019-02-22T10:54:20.301Z,28.30
2019-02-22T10:55:20.286Z,27.10
2019-02-22T10:56:20.294Z,25.50
2019-02-22T10:57:20.266Z,26.20
2019-02-22T10:58:20.253Z,27.80
2019-02-22T10:59:20.244Z,29.30
2019-02-22T11:00:20.248Z,27.20
2019-02-22T11:01:20.237Z,25.70
2019-02-22T11:02:20.229Z,24.90
2019-02-22T11:03:20.193Z,23.40
2019-02-22T11:04:20.196Z,23.70
2019-02-22T11:05:20.179Z,25.10
2019-02-22T11:06:20.182Z,22.30
2019-02-22T11:07:20.185Z,22.00
2019-02-22T11:08:20.145Z,19.30
2019-02-22T11:09:20.128Z,21.60
2019-02-22T11:10:20.117Z,21.90
2019-02-22T11:11:20.140Z,21.70
2019-02-22T11:12:20.111Z,22.80
2019-02-22T11:13:21.414Z,21.40
2019-02-22T11:14:28.876Z,22.90
2019-02-22T11:15:21.058Z,22.70
2019-02-22T11:16:20.063Z,20.90
2019-02-22T11:17:20.043Z,22.50
2019-02-22T11:18:20.050Z,22.20
2019-02-22T11:19:20.034Z,21.50
2019-02-22T11:20:20.020Z,22.30
2019-02-22T11:21:19.998Z,22.90
2019-02-22T11:22:20.113Z,21.90
2019-02-22T11:23:20.089Z,22.40
2019-02-22T11:24:20.139Z,22.30
2019-02-22T11:25:21.849Z,22.10
2019-02-22T11:26:20.042Z,21.20
2019-02-22T11:27:19.927Z,19.40
2019-02-22T11:28:19.967Z,21.00
2019-02-22T11:29:19.963Z,18.20
2019-02-22T11:30:19.913Z,19.50
2019-02-22T11:31:19.903Z,19.20
2019-02-22T11:32:19.919Z,19.30
2019-02-22T11:33:19.970Z,20.40
2019-02-22T11:34:19.876Z,20.10
2019-02-22T11:35:19.988Z,21.90
2019-02-22T11:36:19.830Z,20.70
2019-02-22T11:37:19.832Z,20.90
2019-02-22T11:38:19.879Z,20.50
2019-02-22T11:39:19.884Z,22.10
2019-02-22T11:40:19.787Z,18.80
2019-02-22T11:41:19.855Z,20.40
2019-02-22T11:42:19.759Z,19.30
2019-02-22T11:43:19.767Z,17.40
2019-02-22T11:44:19.840Z,17.60
2019-02-22T11:45:19.746Z,18.40
2019-02-22T11:46:19.734Z,16.80
2019-02-22T11:47:19.721Z,18.00
2019-02-22T11:48:19.696Z,17.30
2019-02-22T11:49:19.699Z,18.20
2019-02-22T11:50:19.673Z,18.50
2019-02-22T11:51:19.675Z,16.80
2019-02-22T11:52:19.664Z,16.80
2019-02-22T11:53:19.647Z,14.90
2019-02-22T11:54:19.643Z,17.90
2019-02-22T11:55:19.628Z,18.10
2019-02-22T11:56:19.620Z,16.40
2019-02-22T11:57:19.709Z,16.90
2019-02-22T11:58:19.595Z,17.00
2019-02-22T11:59:19.575Z,18.10
2019-02-22T12:00:19.585Z,17.50
2019-02-22T12:01:19.643Z,17.20
2019-02-22T12:02:19.544Z,19.30
2019-02-22T12:03:24.532Z,17.80
2019-02-22T12:04:20.522Z,16.00
2019-02-22T12:05:19.542Z,18.40
2019-02-22T12:06:19.513Z,16.80
2019-02-22T12:07:19.523Z,16.00
2019-02-22T12:08:19.503Z,17.60
2019-02-22T12:09:19.544Z,17.00
2019-02-22T12:10:19.486Z,17.70
2019-02-22T12:11:19.491Z,15.60
2019-02-22T12:12:19.444Z,16.10
2019-02-22T12:13:19.492Z,17.70
2019-02-22T12:14:19.527Z,18.50
2019-02-22T12:15:19.417Z,18.60
2019-02-22T12:16:19.408Z,17.20
2019-02-22T12:17:19.427Z,16.30
2019-02-22T12:18:19.395Z,16.40
2019-02-22T12:19:19.354Z,17.60
2019-02-22T12:20:19.382Z,17.30
2019-02-22T12:21:19.417Z,16.50
2019-02-22T12:22:19.360Z,16.70
2019-02-22T12:23:19.445Z,17.70
2019-02-22T12:24:19.327Z,16.50
2019-02-22T12:25:19.306Z,15.30
2019-02-22T12:26:19.329Z,16.30
2019-02-22T12:27:19.286Z,12.60
2019-02-22T12:28:19.290Z,11.90
2019-02-22T12:29:19.269Z,11.10
2019-02-22T12:30:19.280Z,9.50
2019-02-22T12:31:19.278Z,10.80
2019-02-22T12:32:19.256Z,9.90
2019-02-22T12:33:19.242Z,11.20
2019-02-22T12:34:19.187Z,10.50
2019-02-22T12:35:19.193Z,10.50
2019-02-22T12:36:19.233Z,9.40
2019-02-22T12:37:19.197Z,10.80
2019-02-22T12:38:19.156Z,10.70
2019-02-22T12:39:19.189Z,10.50
2019-02-22T12:40:19.171Z,12.30
2019-02-22T12:41:19.867Z,12.20
2019-02-22T12:42:19.132Z,10.50
2019-02-22T12:43:19.098Z,11.70
2019-02-22T12:44:19.095Z,10.40
2019-02-22T12:45:19.140Z,11.60
2019-02-22T12:46:19.058Z,14.10
2019-02-22T12:47:19.132Z,12.00
2019-02-22T12:48:19.353Z,12.50
2019-02-22T12:49:19.081Z,11.30
2019-02-22T12:50:19.082Z,13.50
2019-02-22T12:51:19.830Z,14.20
2019-02-22T12:52:19.033Z,12.10